sensor_id;sensor_type;location;lat;lon;timestamp;P1;P2;P0
76045;PMS7003;64741;41.730;44.788;2023-02-10T00:01:54;4.2;4;3
76045;PMS7003;64741;41.730;44.788;2023-02-10T00:06:54;4.2;2.8;2
76045;PMS7003;64741;41.730;44.788;2023-02-10T00:11:54;4.2;3.2;2.2
76045;PMS7003;64741;41.730;44.788;2023-02-10T00:16:56;3.8;3.6;2.6
76045;PMS7003;64741;41.730;44.788;2023-02-10T00:21:54;4.2;3.8;2.8
76045;PMS7003;64741;41.730;44.788;2023-02-10T00:26:54;4.2;3.8;3
76045;PMS7003;64741;41.730;44.788;2023-02-10T00:31:54;4.2;3.4;2
76045;PMS7003;64741;41.730;44.788;2023-02-10T00:36:53;3.4;2.8;1.6
76045;PMS7003;64741;41.730;44.788;2023-02-10T00:41:54;4.2;3;1.8
76045;PMS7003;64741;41.730;44.788;2023-02-10T00:46:53;3.2;2.2;1.4
76045;PMS7003;64741;41.730;44.788;2023-02-10T00:51:56;3.2;2.8;1.6
76045;PMS7003;64741;41.730;44.788;2023-02-10T00:56:52;3;3;1.6
76045;PMS7003;64741;41.730;44.788;2023-02-10T01:01:50;3.8;3.4;2.2
76045;PMS7003;64741;41.730;44.788;2023-02-10T01:06:55;4;3.4;2.8
76045;PMS7003;64741;41.730;44.788;2023-02-10T01:11:44;3.6;3;2.2
76045;PMS7003;64741;41.730;44.788;2023-02-10T01:16:11;5.3;2.8;1.5
76045;PMS7003;64741;41.730;44.788;2023-02-10T01:21:54;2.6;2.6;1.6
76045;PMS7003;64741;41.730;44.788;2023-02-10T01:26:54;2.8;2.2;1.6
76045;PMS7003;64741;41.730;44.788;2023-02-10T01:31:50;2.2;2;1.4
76045;PMS7003;64741;41.730;44.788;2023-02-10T01:36:52;3.2;2.6;1.6
76045;PMS7003;64741;41.730;44.788;2023-02-10T01:41:56;3.2;2.2;1.6
76045;PMS7003;64741;41.730;44.788;2023-02-10T01:46:55;2.8;2.4;1
76045;PMS7003;64741;41.730;44.788;2023-02-10T01:51:54;3.6;2.4;1.6
76045;PMS7003;64741;41.730;44.788;2023-02-10T01:56:57;2.8;1.2;1.2
76045;PMS7003;64741;41.730;44.788;2023-02-10T02:01:52;3.8;3;2
76045;PMS7003;64741;41.730;44.788;2023-02-10T02:06:54;3.2;1.8;1.4
76045;PMS7003;64741;41.730;44.788;2023-02-10T02:11:57;3;2.4;1.8
76045;PMS7003;64741;41.730;44.788;2023-02-10T02:16:58;1.6;1.6;1
76045;PMS7003;64741;41.730;44.788;2023-02-10T02:21:59;2;1.6;0.6
76045;PMS7003;64741;41.730;44.788;2023-02-10T02:27:02;2.8;2.2;1.4
76045;PMS7003;64741;41.730;44.788;2023-02-10T02:31:56;3.6;2.4;2
76045;PMS7003;64741;41.730;44.788;2023-02-10T02:36:54;1.8;1.6;1
76045;PMS7003;64741;41.730;44.788;2023-02-10T02:41:34;1.6;1.4;0.8
76045;PMS7003;64741;41.730;44.788;2023-02-10T02:46:55;2;1.8;1.2
76045;PMS7003;64741;41.730;44.788;2023-02-10T02:51:57;3.4;1.8;0.8
76045;PMS7003;64741;41.730;44.788;2023-02-10T02:56:56;1.2;1.2;0.6
76045;PMS7003;64741;41.730;44.788;2023-02-10T03:01:45;1.4;1.2;0.8
76045;PMS7003;64741;41.730;44.788;2023-02-10T03:06:53;2.2;1;0.6
76045;PMS7003;64741;41.730;44.788;2023-02-10T03:11:55;1.6;1.4;0.8
76045;PMS7003;64741;41.730;44.788;2023-02-10T03:16:54;1;1;0.6
76045;PMS7003;64741;41.730;44.788;2023-02-10T03:21:56;1.4;1.2;0.8
76045;PMS7003;64741;41.730;44.788;2023-02-10T03:26:52;0.8;0.8;0.6
76045;PMS7003;64741;41.730;44.788;2023-02-10T03:31:52;1.8;1.2;1
76045;PMS7003;64741;41.730;44.788;2023-02-10T03:36:56;1.4;1.2;0.6
76045;PMS7003;64741;41.730;44.788;2023-02-10T03:41:52;1.4;1;0.6
76045;PMS7003;64741;41.730;44.788;2023-02-10T03:46:47;1.4;1.2;0.6
76045;PMS7003;64741;41.730;44.788;2023-02-10T03:51:56;1.8;1.4;0.8
76045;PMS7003;64741;41.730;44.788;2023-02-10T03:56:52;2.2;1.4;0.6
76045;PMS7003;64741;41.730;44.788;2023-02-10T04:01:50;1.6;1.6;1.2
76045;PMS7003;64741;41.730;44.788;2023-02-10T04:06:56;1.2;0.8;0.6
76045;PMS7003;64741;41.730;44.788;2023-02-10T04:11:52;1.4;1;0.6
76045;PMS7003;64741;41.730;44.788;2023-02-10T04:16:55;1.2;1.2;0.2
76045;PMS7003;64741;41.730;44.788;2023-02-10T04:21:52;1.2;1;0.4
76045;PMS7003;64741;41.730;44.788;2023-02-10T04:26:56;1.6;1.4;0.8
76045;PMS7003;64741;41.730;44.788;2023-02-10T04:31:52;1;0.6;0.2
76045;PMS7003;64741;41.730;44.788;2023-02-10T04:36:52;0.6;0.6;0.4
76045;PMS7003;64741;41.730;44.788;2023-02-10T04:41:55;2;1;0
76045;PMS7003;64741;41.730;44.788;2023-02-10T04:46:54;0.6;0.4;0.2
76045;PMS7003;64741;41.730;44.788;2023-02-10T04:51:53;1;0.8;0.2
76045;PMS7003;64741;41.730;44.788;2023-02-10T04:56:56;1.4;1;0.4
76045;PMS7003;64741;41.730;44.788;2023-02-10T05:01:54;1.6;1.2;0.6
76045;PMS7003;64741;41.730;44.788;2023-02-10T05:06:52;1.4;1;0.6
76045;PMS7003;64741;41.730;44.788;2023-02-10T05:11:55;2;1.6;0.6
76045;PMS7003;64741;41.730;44.788;2023-02-10T05:16:55;1.2;1;0.4
76045;PMS7003;64741;41.730;44.788;2023-02-10T05:21:57;2.4;1.4;0.8
76045;PMS7003;64741;41.730;44.788;2023-02-10T05:26:52;1.4;0.2;0.2
76045;PMS7003;64741;41.730;44.788;2023-02-10T05:31:54;1.6;1.2;0.8
76045;PMS7003;64741;41.730;44.788;2023-02-10T05:36:53;0.2;0.2;0
76045;PMS7003;64741;41.730;44.788;2023-02-10T05:41:53;0.4;0.4;0.2
76045;PMS7003;64741;41.730;44.788;2023-02-10T05:46:39;1;0.6;0
76045;PMS7003;64741;41.730;44.788;2023-02-10T05:51:56;0.8;0.4;0
76045;PMS7003;64741;41.730;44.788;2023-02-10T05:56:52;0.8;0.4;0.2
76045;PMS7003;64741;41.730;44.788;2023-02-10T06:01:52;0.4;0.4;0.2
76045;PMS7003;64741;41.730;44.788;2023-02-10T06:06:07;2;1;0.6
76045;PMS7003;64741;41.730;44.788;2023-02-10T06:11:46;0.4;0.4;0
76045;PMS7003;64741;41.730;44.788;2023-02-10T06:16:53;1;0.2;0
76045;PMS7003;64741;41.730;44.788;2023-02-10T06:21:53;0.4;0.4;0
76045;PMS7003;64741;41.730;44.788;2023-02-10T06:26:52;0.3;0.3;0.3
76045;PMS7003;64741;41.730;44.788;2023-02-10T06:31:51;1.2;0.8;0.2
76045;PMS7003;64741;41.730;44.788;2023-02-10T06:36:52;1;0.4;0
76045;PMS7003;64741;41.730;44.788;2023-02-10T06:41:52;1;0.8;0.2
76045;PMS7003;64741;41.730;44.788;2023-02-10T06:46:57;1;0.4;0.2
76045;PMS7003;64741;41.730;44.788;2023-02-10T06:51:55;0.6;0.6;0.4
76045;PMS7003;64741;41.730;44.788;2023-02-10T06:56:53;1.2;0.8;0.2
76045;PMS7003;64741;41.730;44.788;2023-02-10T07:01:54;1.2;1.2;0.6
76045;PMS7003;64741;41.730;44.788;2023-02-10T07:06:52;2;1.2;0.4
76045;PMS7003;64741;41.730;44.788;2023-02-10T07:11:55;1.2;0.6;0.4
76045;PMS7003;64741;41.730;44.788;2023-02-10T07:16:55;1.4;0.6;0.2
76045;PMS7003;64741;41.730;44.788;2023-02-10T07:21:52;1.4;0.6;0.2
76045;PMS7003;64741;41.730;44.788;2023-02-10T07:26:53;1;0.6;0.2
76045;PMS7003;64741;41.730;44.788;2023-02-10T07:31:55;1;0.6;0.4
76045;PMS7003;64741;41.730;44.788;2023-02-10T07:36:54;1.2;0.4;0
76045;PMS7003;64741;41.730;44.788;2023-02-10T07:41:57;0.6;0.4;0.2
76045;PMS7003;64741;41.730;44.788;2023-02-10T07:46:54;0.8;0.6;0.4
76045;PMS7003;64741;41.730;44.788;2023-02-10T07:51:53;1.4;0.4;0.2
76045;PMS7003;64741;41.730;44.788;2023-02-10T07:56:53;2.2;1.8;1.4
76045;PMS7003;64741;41.730;44.788;2023-02-10T08:01:51;14;12.2;10.2
76045;PMS7003;64741;41.730;44.788;2023-02-10T08:06:55;17.6;16.4;12
76045;PMS7003;64741;41.730;44.788;2023-02-10T08:11:55;16.4;14.8;10.4
76045;PMS7003;64741;41.730;44.788;2023-02-10T08:16:53;17;14.8;10.8
76045;PMS7003;64741;41.730;44.788;2023-02-10T08:21:55;15.2;12.8;9.6
76045;PMS7003;64741;41.730;44.788;2023-02-10T08:26:57;12.4;11.2;9
76045;PMS7003;64741;41.730;44.788;2023-02-10T08:31:51;17.8;15.2;11.2
76045;PMS7003;64741;41.730;44.788;2023-02-10T08:36:53;20.6;19;13.8
76045;PMS7003;64741;41.730;44.788;2023-02-10T08:41:53;18;15.6;11.8
76045;PMS7003;64741;41.730;44.788;2023-02-10T08:46:55;15;13;9.6
76045;PMS7003;64741;41.730;44.788;2023-02-10T08:51:53;13.4;11.8;9
76045;PMS7003;64741;41.730;44.788;2023-02-10T08:56:53;11.2;10.4;7.8
76045;PMS7003;64741;41.730;44.788;2023-02-10T09:01:49;41;31.8;21.6
76045;PMS7003;64741;41.730;44.788;2023-02-10T09:06:55;91.2;78.4;49.8
76045;PMS7003;64741;41.730;44.788;2023-02-10T09:11:51;109.6;93.2;61
76045;PMS7003;64741;41.730;44.788;2023-02-10T09:16:57;100.4;85.8;55.6
76045;PMS7003;64741;41.730;44.788;2023-02-10T09:21:53;102.2;88.2;56.4
76045;PMS7003;64741;41.730;44.788;2023-02-10T09:26:55;91.8;81;53
76045;PMS7003;64741;41.730;44.788;2023-02-10T09:31:51;90.4;80.2;50.6
76045;PMS7003;64741;41.730;44.788;2023-02-10T09:36:53;79.6;70;46
76045;PMS7003;64741;41.730;44.788;2023-02-10T09:41:55;79.6;69;46.4
76045;PMS7003;64741;41.730;44.788;2023-02-10T09:46:59;77.6;65;43.6
76045;PMS7003;64741;41.730;44.788;2023-02-10T09:51:52;76.2;61.2;40.4
76045;PMS7003;64741;41.730;44.788;2023-02-10T09:56:55;72;55.8;37
76045;PMS7003;64741;41.730;44.788;2023-02-10T10:01:57;71.8;56.4;37.6
76045;PMS7003;64741;41.730;44.788;2023-02-10T10:06:55;70.4;55.2;35.6
76045;PMS7003;64741;41.730;44.788;2023-02-10T10:11:55;69.6;53.2;34
76045;PMS7003;64741;41.730;44.788;2023-02-10T10:16:59;68;51;33.4
76045;PMS7003;64741;41.730;44.788;2023-02-10T10:21:43;66.6;51.6;33
76045;PMS7003;64741;41.730;44.788;2023-02-10T10:26:58;64.4;50.4;33.4
76045;PMS7003;64741;41.730;44.788;2023-02-10T10:31:53;66.2;51.4;34.2
76045;PMS7003;64741;41.730;44.788;2023-02-10T10:36:57;68.4;51.8;34.8
76045;PMS7003;64741;41.730;44.788;2023-02-10T10:41:57;67;52;34.6
76045;PMS7003;64741;41.730;44.788;2023-02-10T10:46:55;66.2;50.4;33.4
76045;PMS7003;64741;41.730;44.788;2023-02-10T10:51:55;66.8;51.2;33.8
76045;PMS7003;64741;41.730;44.788;2023-02-10T10:56:56;66.8;51.8;34.2
76045;PMS7003;64741;41.730;44.788;2023-02-10T11:01:51;67;50.4;33.2
76045;PMS7003;64741;41.730;44.788;2023-02-10T11:06:52;65;50;33.6
76045;PMS7003;64741;41.730;44.788;2023-02-10T11:11:53;65.8;52;35.2
76045;PMS7003;64741;41.730;44.788;2023-02-10T11:16:51;69.2;54.6;35.8
76045;PMS7003;64741;41.730;44.788;2023-02-10T11:21:55;63.4;50;33.4
76045;PMS7003;64741;41.730;44.788;2023-02-10T11:26:53;63;49.2;32.6
76045;PMS7003;64741;41.730;44.788;2023-02-10T11:31:53;61.8;47.2;31.4
76045;PMS7003;64741;41.730;44.788;2023-02-10T11:36:45;60.5;47.5;32
76045;PMS7003;64741;41.730;44.788;2023-02-10T11:41:53;59.4;45.2;30.4
76045;PMS7003;64741;41.730;44.788;2023-02-10T11:46:57;56.8;43.8;29.2
76045;PMS7003;64741;41.730;44.788;2023-02-10T11:51:33;57.2;44;29.4
76045;PMS7003;64741;41.730;44.788;2023-02-10T11:56:58;55.8;41.8;27.4
76045;PMS7003;64741;41.730;44.788;2023-02-10T12:01:53;55.4;42.8;28.2
76045;PMS7003;64741;41.730;44.788;2023-02-10T12:06:56;51.6;40.4;27.4
76045;PMS7003;64741;41.730;44.788;2023-02-10T12:11:56;51.4;39.8;27
76045;PMS7003;64741;41.730;44.788;2023-02-10T12:16:57;47.6;38.2;25.6
76045;PMS7003;64741;41.730;44.788;2023-02-10T12:21:59;49.8;38.8;26
76045;PMS7003;64741;41.730;44.788;2023-02-10T12:26:55;48.8;39.2;26.4
76045;PMS7003;64741;41.730;44.788;2023-02-10T12:31:53;47;37.8;25.4
76045;PMS7003;64741;41.730;44.788;2023-02-10T12:36:55;47.2;38.2;25.4
76045;PMS7003;64741;41.730;44.788;2023-02-10T12:41:47;50.2;38.8;25.6
76045;PMS7003;64741;41.730;44.788;2023-02-10T12:46:42;49.6;39.8;26.4
76045;PMS7003;64741;41.730;44.788;2023-02-10T12:51:56;48.6;37.8;26
76045;PMS7003;64741;41.730;44.788;2023-02-10T12:56:57;46.4;37;25.4
76045;PMS7003;64741;41.730;44.788;2023-02-10T13:01:51;45.2;36.2;24.2
76045;PMS7003;64741;41.730;44.788;2023-02-10T13:06:54;43.4;34.8;24.2
76045;PMS7003;64741;41.730;44.788;2023-02-10T13:12:03;42.8;35.2;22.4
76045;PMS7003;64741;41.730;44.788;2023-02-10T13:16:53;42.2;34.8;23.8
76045;PMS7003;64741;41.730;44.788;2023-02-10T13:21:56;39.2;31.6;21.8
76045;PMS7003;64741;41.730;44.788;2023-02-10T13:26:59;37.6;32.2;21.8
76045;PMS7003;64741;41.730;44.788;2023-02-10T13:31:48;40.6;32.6;22
76045;PMS7003;64741;41.730;44.788;2023-02-10T13:36:55;36.8;30.2;19.8
76045;PMS7003;64741;41.730;44.788;2023-02-10T13:42:04;35.4;30.6;21
76045;PMS7003;64741;41.730;44.788;2023-02-10T13:46:58;36.4;29.8;20.8
76045;PMS7003;64741;41.730;44.788;2023-02-10T13:51:59;37.4;30.6;21.6
76045;PMS7003;64741;41.730;44.788;2023-02-10T13:56:55;30.4;27;18.6
76045;PMS7003;64741;41.730;44.788;2023-02-10T14:02:02;34.2;29;19.4
76045;PMS7003;64741;41.730;44.788;2023-02-10T14:06:55;30.4;27.4;19
76045;PMS7003;64741;41.730;44.788;2023-02-10T14:11:39;28.8;24.8;17.4
76045;PMS7003;64741;41.730;44.788;2023-02-10T14:17:01;25;23.2;17.4
76045;PMS7003;64741;41.730;44.788;2023-02-10T14:21:57;27.8;24.8;17.4
76045;PMS7003;64741;41.730;44.788;2023-02-10T14:26:57;25.6;22.2;16
76045;PMS7003;64741;41.730;44.788;2023-02-10T14:31:39;25;22.4;15
76045;PMS7003;64741;41.730;44.788;2023-02-10T14:36:53;23.2;19.6;14.2
76045;PMS7003;64741;41.730;44.788;2023-02-10T14:41:55;23.2;20.4;13.8
76045;PMS7003;64741;41.730;44.788;2023-02-10T14:46:57;21.4;20.4;14.8
76045;PMS7003;64741;41.730;44.788;2023-02-10T14:51:55;22.4;19;13.2
76045;PMS7003;64741;41.730;44.788;2023-02-10T14:56:48;19.6;16.8;12
76045;PMS7003;64741;41.730;44.788;2023-02-10T15:01:55;18;15.6;11.8
76045;PMS7003;64741;41.730;44.788;2023-02-10T15:06:54;17.2;16.2;11.8
76045;PMS7003;64741;41.730;44.788;2023-02-10T15:11:57;17;15.6;11
76045;PMS7003;64741;41.730;44.788;2023-02-10T15:16:55;17.2;15.4;10.8
76045;PMS7003;64741;41.730;44.788;2023-02-10T15:21:53;16.4;13.4;9.4
76045;PMS7003;64741;41.730;44.788;2023-02-10T15:26:55;16;14.6;10.8
76045;PMS7003;64741;41.730;44.788;2023-02-10T15:31:56;15.2;12.2;8.2
76045;PMS7003;64741;41.730;44.788;2023-02-10T15:36:56;13.8;12.4;8.2
76045;PMS7003;64741;41.730;44.788;2023-02-10T15:41:57;12;10.8;7.2
76045;PMS7003;64741;41.730;44.788;2023-02-10T15:47:11;10.4;9.6;7.2
76045;PMS7003;64741;41.730;44.788;2023-02-10T15:51:55;10.2;8.4;6.2
76045;PMS7003;64741;41.730;44.788;2023-02-10T15:56:55;8.4;8.2;6
76045;PMS7003;64741;41.730;44.788;2023-02-10T16:01:43;9.2;8.2;5.4
76045;PMS7003;64741;41.730;44.788;2023-02-10T16:06:55;8;7.2;5.6
76045;PMS7003;64741;41.730;44.788;2023-02-10T16:11:55;8.8;7.6;5.8
76045;PMS7003;64741;41.730;44.788;2023-02-10T16:16:55;8.4;7.8;5.8
76045;PMS7003;64741;41.730;44.788;2023-02-10T16:21:57;8.6;7;5.2
76045;PMS7003;64741;41.730;44.788;2023-02-10T16:26:53;9.2;7.8;5.8
76045;PMS7003;64741;41.730;44.788;2023-02-10T16:31:27;8.2;7;5.4
76045;PMS7003;64741;41.730;44.788;2023-02-10T16:36:57;8;7;4.8
76045;PMS7003;64741;41.730;44.788;2023-02-10T16:41:55;7.2;6.2;4.8
76045;PMS7003;64741;41.730;44.788;2023-02-10T16:46:55;7.6;6.6;4.4
76045;PMS7003;64741;41.730;44.788;2023-02-10T16:51:57;6.4;6;4.8
76045;PMS7003;64741;41.730;44.788;2023-02-10T16:56:53;5.6;5.4;3.8
76045;PMS7003;64741;41.730;44.788;2023-02-10T17:01:55;8.2;6.4;4.4
76045;PMS7003;64741;41.730;44.788;2023-02-10T17:06:55;7;6.2;4.6
76045;PMS7003;64741;41.730;44.788;2023-02-10T17:11:57;5.4;4.8;3.2
76045;PMS7003;64741;41.730;44.788;2023-02-10T17:16:57;7.8;5.8;4.5
76045;PMS7003;64741;41.730;44.788;2023-02-10T17:21:31;5.8;5;3.6
76045;PMS7003;64741;41.730;44.788;2023-02-10T17:26:39;6.8;5.8;4
76045;PMS7003;64741;41.730;44.788;2023-02-10T17:31:57;6;5.4;3.6
76045;PMS7003;64741;41.730;44.788;2023-02-10T17:36:55;6.4;5.2;3.8
76045;PMS7003;64741;41.730;44.788;2023-02-10T17:41:57;5.2;4;2.8
76045;PMS7003;64741;41.730;44.788;2023-02-10T17:46:55;6.2;5;3.6
76045;PMS7003;64741;41.730;44.788;2023-02-10T17:51:55;5;4.6;3.6
76045;PMS7003;64741;41.730;44.788;2023-02-10T17:56:57;7;4.8;4
76045;PMS7003;64741;41.730;44.788;2023-02-10T18:01:57;5.6;5.2;3.6
76045;PMS7003;64741;41.730;44.788;2023-02-10T18:06:55;6;4.6;3.2
76045;PMS7003;64741;41.730;44.788;2023-02-10T18:11:55;6.4;4.8;3.2
76045;PMS7003;64741;41.730;44.788;2023-02-10T18:16:45;5.4;4.6;2.6
76045;PMS7003;64741;41.730;44.788;2023-02-10T18:21:55;4.6;3.8;2.8
76045;PMS7003;64741;41.730;44.788;2023-02-10T18:26:55;4.6;4.4;3.4
76045;PMS7003;64741;41.730;44.788;2023-02-10T18:31:51;4.4;4.4;3
76045;PMS7003;64741;41.730;44.788;2023-02-10T18:36:55;5.4;4.2;3.4
76045;PMS7003;64741;41.730;44.788;2023-02-10T18:41:55;3.4;3.2;1.8
76045;PMS7003;64741;41.730;44.788;2023-02-10T18:46:53;5.4;4.4;2.8
76045;PMS7003;64741;41.730;44.788;2023-02-10T18:51:57;4.8;4.2;2.8
76045;PMS7003;64741;41.730;44.788;2023-02-10T18:56:55;3.8;3;2.2
76045;PMS7003;64741;41.730;44.788;2023-02-10T19:01:55;3.8;3.4;2.8
76045;PMS7003;64741;41.730;44.788;2023-02-10T19:06:55;4.4;3.8;2.8
76045;PMS7003;64741;41.730;44.788;2023-02-10T19:11:57;3.6;2.8;2
76045;PMS7003;64741;41.730;44.788;2023-02-10T19:16:55;4.4;4;3.2
76045;PMS7003;64741;41.730;44.788;2023-02-10T19:21:41;5.6;3.4;2.8
76045;PMS7003;64741;41.730;44.788;2023-02-10T19:26:45;3;2.8;1.8
76045;PMS7003;64741;41.730;44.788;2023-02-10T19:31:55;2.6;2.6;1.6
76045;PMS7003;64741;41.730;44.788;2023-02-10T19:36:55;4;3;2.2
76045;PMS7003;64741;41.730;44.788;2023-02-10T19:41:55;3;2.6;2
76045;PMS7003;64741;41.730;44.788;2023-02-10T19:46:55;4.4;3.8;2.2
76045;PMS7003;64741;41.730;44.788;2023-02-10T19:51:53;3;2.4;1.6
76045;PMS7003;64741;41.730;44.788;2023-02-10T19:56:53;3.4;2.8;1.8
76045;PMS7003;64741;41.730;44.788;2023-02-10T20:01:55;3.6;2.8;1.8
76045;PMS7003;64741;41.730;44.788;2023-02-10T20:06:55;3.2;2.8;2
76045;PMS7003;64741;41.730;44.788;2023-02-10T20:11:55;2.6;2.4;1.8
76045;PMS7003;64741;41.730;44.788;2023-02-10T20:16:19;4;3.6;1.8
76045;PMS7003;64741;41.730;44.788;2023-02-10T20:21:43;3.6;3.2;2
76045;PMS7003;64741;41.730;44.788;2023-02-10T20:26:57;4.2;3;2.2
76045;PMS7003;64741;41.730;44.788;2023-02-10T20:31:53;3.6;2.8;2
76045;PMS7003;64741;41.730;44.788;2023-02-10T20:36:55;3;2.2;1.4
76045;PMS7003;64741;41.730;44.788;2023-02-10T20:41:55;2.8;2.8;2.2
76045;PMS7003;64741;41.730;44.788;2023-02-10T20:46:55;4.2;2.8;2
76045;PMS7003;64741;41.730;44.788;2023-02-10T20:51:53;2.4;1.6;1.4
76045;PMS7003;64741;41.730;44.788;2023-02-10T20:56:55;3.8;3;2
76045;PMS7003;64741;41.730;44.788;2023-02-10T21:01:55;2.6;2.6;1.4
76045;PMS7003;64741;41.730;44.788;2023-02-10T21:06:45;3.4;2.4;1.6
76045;PMS7003;64741;41.730;44.788;2023-02-10T21:11:53;3.2;2;1.4
76045;PMS7003;64741;41.730;44.788;2023-02-10T21:16:53;2.8;2.8;1.8
76045;PMS7003;64741;41.730;44.788;2023-02-10T21:21:53;3;2.4;1.4
76045;PMS7003;64741;41.730;44.788;2023-02-10T21:26:51;2.6;2.2;1.4
76045;PMS7003;64741;41.730;44.788;2023-02-10T21:31:55;2.6;2.2;1.6
76045;PMS7003;64741;41.730;44.788;2023-02-10T21:36:51;2.8;2.6;1.8
76045;PMS7003;64741;41.730;44.788;2023-02-10T21:41:55;3.2;2.6;2
76045;PMS7003;64741;41.730;44.788;2023-02-10T21:46:55;3;1.8;1.6
76045;PMS7003;64741;41.730;44.788;2023-02-10T21:51:55;1.8;1.6;0.6
76045;PMS7003;64741;41.730;44.788;2023-02-10T21:56:53;4;2;1.2
76045;PMS7003;64741;41.730;44.788;2023-02-10T22:01:55;2.6;2.2;1.4
76045;PMS7003;64741;41.730;44.788;2023-02-10T22:06:53;4;2.8;1.6
76045;PMS7003;64741;41.730;44.788;2023-02-10T22:11:55;3;2;1.2
76045;PMS7003;64741;41.730;44.788;2023-02-10T22:16:57;3;2;1.4
76045;PMS7003;64741;41.730;44.788;2023-02-10T22:21:55;4;2.8;1.8
76045;PMS7003;64741;41.730;44.788;2023-02-10T22:26:57;2.5;2.3;1.3
76045;PMS7003;64741;41.730;44.788;2023-02-10T22:31:51;2.6;2;1.2
76045;PMS7003;64741;41.730;44.788;2023-02-10T22:36:55;2.4;2.4;1.2
76045;PMS7003;64741;41.730;44.788;2023-02-10T22:41:55;3.2;2.6;1.8
76045;PMS7003;64741;41.730;44.788;2023-02-10T22:46:55;2.2;2.2;1.6
76045;PMS7003;64741;41.730;44.788;2023-02-10T22:51:55;3.4;2.6;1.6
76045;PMS7003;64741;41.730;44.788;2023-02-10T22:56:57;2.4;2;1.4
76045;PMS7003;64741;41.730;44.788;2023-02-10T23:01:43;3.4;2.4;1.4
76045;PMS7003;64741;41.730;44.788;2023-02-10T23:06:55;4.8;3.2;2.4
76045;PMS7003;64741;41.730;44.788;2023-02-10T23:11:55;2.2;2;1
76045;PMS7003;64741;41.730;44.788;2023-02-10T23:16:55;3.4;2.4;1.6
76045;PMS7003;64741;41.730;44.788;2023-02-10T23:21:57;2.4;1.8;1.2
76045;PMS7003;64741;41.730;44.788;2023-02-10T23:26:55;2.6;1.8;1.2
76045;PMS7003;64741;41.730;44.788;2023-02-10T23:31:53;3;2.2;1.8
76045;PMS7003;64741;41.730;44.788;2023-02-10T23:36:55;2.6;1.4;0.8
76045;PMS7003;64741;41.730;44.788;2023-02-10T23:41:55;3.2;2.2;1.2
76045;PMS7003;64741;41.730;44.788;2023-02-10T23:46:55;3.2;2;1.2
76045;PMS7003;64741;41.730;44.788;2023-02-10T23:51:55;1.8;1.4;0.8
76045;PMS7003;64741;41.730;44.788;2023-02-10T23:56:53;1.4;1.4;0.4
